sensor_id;sensor_type;location;lat;lon;timestamp;P1;durP1;ratioP1;P2;durP2;ratioP2
67768;SDS011;54569;52.018;5.584;2023-03-12T00:00:20;5.93;;;5.13;;
67768;SDS011;54569;52.018;5.584;2023-03-12T00:02:46;6.10;;;4.55;;
67768;SDS011;54569;52.018;5.584;2023-03-12T00:05:12;7.93;;;4.57;;
67768;SDS011;54569;52.018;5.584;2023-03-12T00:07:37;8.13;;;5.03;;
67768;SDS011;54569;52.018;5.584;2023-03-12T00:10:04;6.65;;;4.45;;
67768;SDS011;54569;52.018;5.584;2023-03-12T00:12:30;5.55;;;4.85;;
67768;SDS011;54569;52.018;5.584;2023-03-12T00:14:56;8.73;;;5.07;;
67768;SDS011;54569;52.018;5.584;2023-03-12T00:17:21;6.10;;;4.97;;
67768;SDS011;54569;52.018;5.584;2023-03-12T00:19:51;6.93;;;5.50;;
67768;SDS011;54569;52.018;5.584;2023-03-12T00:22:17;7.75;;;4.30;;
67768;SDS011;54569;52.018;5.584;2023-03-12T00:24:50;7.25;;;4.70;;
67768;SDS011;54569;52.018;5.584;2023-03-12T00:27:17;9.73;;;4.85;;
67768;SDS011;54569;52.018;5.584;2023-03-12T00:29:43;4.93;;;4.43;;
67768;SDS011;54569;52.018;5.584;2023-03-12T00:32:09;7.28;;;4.43;;
67768;SDS011;54569;52.018;5.584;2023-03-12T00:34:35;7.43;;;4.47;;
67768;SDS011;54569;52.018;5.584;2023-03-12T00:37:00;5.38;;;4.15;;
67768;SDS011;54569;52.018;5.584;2023-03-12T00:39:26;5.50;;;4.47;;
67768;SDS011;54569;52.018;5.584;2023-03-12T00:41:52;5.72;;;4.65;;
67768;SDS011;54569;52.018;5.584;2023-03-12T00:44:17;6.72;;;5.03;;
67768;SDS011;54569;52.018;5.584;2023-03-12T00:46:43;5.93;;;4.45;;
67768;SDS011;54569;52.018;5.584;2023-03-12T00:49:09;8.93;;;4.47;;
67768;SDS011;54569;52.018;5.584;2023-03-12T00:51:36;7.63;;;4.43;;
67768;SDS011;54569;52.018;5.584;2023-03-12T00:54:02;6.18;;;4.47;;
67768;SDS011;54569;52.018;5.584;2023-03-12T00:56:29;6.55;;;4.25;;
67768;SDS011;54569;52.018;5.584;2023-03-12T00:58:57;5.22;;;3.83;;
67768;SDS011;54569;52.018;5.584;2023-03-12T01:01:22;4.38;;;3.92;;
67768;SDS011;54569;52.018;5.584;2023-03-12T01:03:48;6.22;;;4.25;;
67768;SDS011;54569;52.018;5.584;2023-03-12T01:06:16;6.25;;;4.35;;
67768;SDS011;54569;52.018;5.584;2023-03-12T01:08:42;5.63;;;4.47;;
67768;SDS011;54569;52.018;5.584;2023-03-12T01:11:11;5.15;;;4.65;;
67768;SDS011;54569;52.018;5.584;2023-03-12T01:13:38;5.05;;;4.40;;
67768;SDS011;54569;52.018;5.584;2023-03-12T01:16:04;6.32;;;4.07;;
67768;SDS011;54569;52.018;5.584;2023-03-12T01:18:30;5.25;;;4.20;;
67768;SDS011;54569;52.018;5.584;2023-03-12T01:20:56;4.80;;;3.90;;
67768;SDS011;54569;52.018;5.584;2023-03-12T01:23:22;9.25;;;3.70;;
67768;SDS011;54569;52.018;5.584;2023-03-12T01:25:47;4.10;;;3.70;;
67768;SDS011;54569;52.018;5.584;2023-03-12T01:28:16;5.95;;;3.80;;
67768;SDS011;54569;52.018;5.584;2023-03-12T01:30:42;7.20;;;3.92;;
67768;SDS011;54569;52.018;5.584;2023-03-12T01:33:08;3.75;;;3.42;;
67768;SDS011;54569;52.018;5.584;2023-03-12T01:35:36;4.57;;;3.90;;
67768;SDS011;54569;52.018;5.584;2023-03-12T01:38:04;4.25;;;3.78;;
67768;SDS011;54569;52.018;5.584;2023-03-12T01:40:32;6.43;;;4.00;;
67768;SDS011;54569;52.018;5.584;2023-03-12T01:43:12;3.80;;;2.90;;
67768;SDS011;54569;52.018;5.584;2023-03-12T01:46:21;6.78;;;3.50;;
67768;SDS011;54569;52.018;5.584;2023-03-12T01:48:54;6.13;;;3.90;;
67768;SDS011;54569;52.018;5.584;2023-03-12T01:51:40;4.63;;;3.40;;
67768;SDS011;54569;52.018;5.584;2023-03-12T01:54:12;4.25;;;3.85;;
67768;SDS011;54569;52.018;5.584;2023-03-12T01:56:42;3.90;;;3.08;;
67768;SDS011;54569;52.018;5.584;2023-03-12T01:59:11;5.38;;;3.60;;
67768;SDS011;54569;52.018;5.584;2023-03-12T02:01:40;4.75;;;3.47;;
67768;SDS011;54569;52.018;5.584;2023-03-12T02:04:08;7.35;;;3.20;;
67768;SDS011;54569;52.018;5.584;2023-03-12T02:06:39;8.57;;;3.47;;
67768;SDS011;54569;52.018;5.584;2023-03-12T02:09:10;3.95;;;3.28;;
67768;SDS011;54569;52.018;5.584;2023-03-12T02:11:37;7.13;;;3.55;;
67768;SDS011;54569;52.018;5.584;2023-03-12T02:14:03;4.97;;;3.17;;
67768;SDS011;54569;52.018;5.584;2023-03-12T02:16:29;6.35;;;3.10;;
67768;SDS011;54569;52.018;5.584;2023-03-12T02:18:55;4.50;;;3.05;;
67768;SDS011;54569;52.018;5.584;2023-03-12T02:21:25;5.10;;;3.00;;
67768;SDS011;54569;52.018;5.584;2023-03-12T02:24:05;4.85;;;2.97;;
67768;SDS011;54569;52.018;5.584;2023-03-12T02:26:59;6.57;;;3.08;;
67768;SDS011;54569;52.018;5.584;2023-03-12T02:29:26;6.60;;;2.92;;
67768;SDS011;54569;52.018;5.584;2023-03-12T02:31:56;6.68;;;2.97;;
67768;SDS011;54569;52.018;5.584;2023-03-12T02:34:24;5.38;;;3.35;;
67768;SDS011;54569;52.018;5.584;2023-03-12T02:36:50;3.15;;;2.80;;
67768;SDS011;54569;52.018;5.584;2023-03-12T02:39:16;4.05;;;2.97;;
67768;SDS011;54569;52.018;5.584;2023-03-12T02:41:45;4.22;;;2.83;;
67768;SDS011;54569;52.018;5.584;2023-03-12T02:44:18;5.65;;;3.13;;
67768;SDS011;54569;52.018;5.584;2023-03-12T02:46:50;5.10;;;3.30;;
67768;SDS011;54569;52.018;5.584;2023-03-12T02:49:18;4.40;;;3.33;;
67768;SDS011;54569;52.018;5.584;2023-03-12T02:51:46;5.18;;;3.47;;
67768;SDS011;54569;52.018;5.584;2023-03-12T02:54:13;7.68;;;3.30;;
67768;SDS011;54569;52.018;5.584;2023-03-12T02:56:41;9.15;;;3.40;;
67768;SDS011;54569;52.018;5.584;2023-03-12T02:59:07;3.78;;;2.83;;
67768;SDS011;54569;52.018;5.584;2023-03-12T03:01:37;4.78;;;2.90;;
67768;SDS011;54569;52.018;5.584;2023-03-12T03:04:04;5.63;;;3.15;;
67768;SDS011;54569;52.018;5.584;2023-03-12T03:06:31;3.65;;;2.90;;
67768;SDS011;54569;52.018;5.584;2023-03-12T03:08:58;3.70;;;2.90;;
67768;SDS011;54569;52.018;5.584;2023-03-12T03:11:24;5.15;;;2.60;;
67768;SDS011;54569;52.018;5.584;2023-03-12T03:13:53;5.07;;;2.97;;
67768;SDS011;54569;52.018;5.584;2023-03-12T03:16:20;6.72;;;3.50;;
67768;SDS011;54569;52.018;5.584;2023-03-12T03:18:46;4.63;;;2.92;;
67768;SDS011;54569;52.018;5.584;2023-03-12T03:21:14;4.20;;;3.13;;
67768;SDS011;54569;52.018;5.584;2023-03-12T03:23:42;4.45;;;2.90;;
67768;SDS011;54569;52.018;5.584;2023-03-12T03:26:09;4.80;;;3.13;;
67768;SDS011;54569;52.018;5.584;2023-03-12T03:28:35;4.88;;;2.60;;
67768;SDS011;54569;52.018;5.584;2023-03-12T03:31:01;6.80;;;2.72;;
67768;SDS011;54569;52.018;5.584;2023-03-12T03:33:33;7.30;;;2.80;;
67768;SDS011;54569;52.018;5.584;2023-03-12T03:36:00;3.92;;;2.90;;
67768;SDS011;54569;52.018;5.584;2023-03-12T03:38:29;2.85;;;2.65;;
67768;SDS011;54569;52.018;5.584;2023-03-12T03:40:56;4.10;;;2.17;;
67768;SDS011;54569;52.018;5.584;2023-03-12T03:43:23;3.42;;;2.80;;
67768;SDS011;54569;52.018;5.584;2023-03-12T03:45:59;3.63;;;3.05;;
67768;SDS011;54569;52.018;5.584;2023-03-12T03:48:27;6.63;;;3.17;;
67768;SDS011;54569;52.018;5.584;2023-03-12T03:50:53;6.63;;;3.28;;
67768;SDS011;54569;52.018;5.584;2023-03-12T03:53:23;4.60;;;2.92;;
67768;SDS011;54569;52.018;5.584;2023-03-12T03:55:49;4.32;;;3.03;;
67768;SDS011;54569;52.018;5.584;2023-03-12T03:58:14;6.35;;;3.30;;
67768;SDS011;54569;52.018;5.584;2023-03-12T04:00:42;3.55;;;2.67;;
67768;SDS011;54569;52.018;5.584;2023-03-12T04:03:09;7.10;;;2.70;;
67768;SDS011;54569;52.018;5.584;2023-03-12T04:05:35;7.05;;;3.05;;
67768;SDS011;54569;52.018;5.584;2023-03-12T04:08:01;6.15;;;3.42;;
67768;SDS011;54569;52.018;5.584;2023-03-12T04:10:31;5.30;;;3.00;;
67768;SDS011;54569;52.018;5.584;2023-03-12T04:12:57;4.32;;;2.60;;
67768;SDS011;54569;52.018;5.584;2023-03-12T04:15:23;3.50;;;3.08;;
67768;SDS011;54569;52.018;5.584;2023-03-12T04:17:49;3.67;;;2.70;;
67768;SDS011;54569;52.018;5.584;2023-03-12T04:20:15;4.10;;;2.33;;
67768;SDS011;54569;52.018;5.584;2023-03-12T04:22:41;6.97;;;2.45;;
67768;SDS011;54569;52.018;5.584;2023-03-12T04:25:08;8.65;;;2.70;;
67768;SDS011;54569;52.018;5.584;2023-03-12T04:27:35;4.07;;;2.35;;
67768;SDS011;54569;52.018;5.584;2023-03-12T04:30:00;3.50;;;2.22;;
67768;SDS011;54569;52.018;5.584;2023-03-12T04:32:26;3.35;;;2.67;;
67768;SDS011;54569;52.018;5.584;2023-03-12T04:34:52;4.60;;;2.38;;
67768;SDS011;54569;52.018;5.584;2023-03-12T04:37:18;5.32;;;2.83;;
67768;SDS011;54569;52.018;5.584;2023-03-12T04:39:44;4.10;;;2.83;;
67768;SDS011;54569;52.018;5.584;2023-03-12T04:42:11;4.25;;;2.75;;
67768;SDS011;54569;52.018;5.584;2023-03-12T04:44:39;7.25;;;3.30;;
67768;SDS011;54569;52.018;5.584;2023-03-12T04:47:05;4.28;;;3.05;;
67768;SDS011;54569;52.018;5.584;2023-03-12T04:49:32;5.13;;;3.17;;
67768;SDS011;54569;52.018;5.584;2023-03-12T04:51:57;4.35;;;3.00;;
67768;SDS011;54569;52.018;5.584;2023-03-12T04:54:23;7.28;;;3.15;;
67768;SDS011;54569;52.018;5.584;2023-03-12T04:56:49;6.18;;;3.45;;
67768;SDS011;54569;52.018;5.584;2023-03-12T04:59:16;7.40;;;3.80;;
67768;SDS011;54569;52.018;5.584;2023-03-12T05:01:43;3.97;;;3.00;;
67768;SDS011;54569;52.018;5.584;2023-03-12T05:04:16;6.20;;;3.10;;
67768;SDS011;54569;52.018;5.584;2023-03-12T05:06:42;5.97;;;4.25;;
67768;SDS011;54569;52.018;5.584;2023-03-12T05:09:07;5.68;;;3.35;;
67768;SDS011;54569;52.018;5.584;2023-03-12T05:11:33;4.85;;;3.20;;
67768;SDS011;54569;52.018;5.584;2023-03-12T05:14:00;6.57;;;3.50;;
67768;SDS011;54569;52.018;5.584;2023-03-12T05:16:27;4.05;;;3.13;;
67768;SDS011;54569;52.018;5.584;2023-03-12T05:18:53;5.15;;;3.40;;
67768;SDS011;54569;52.018;5.584;2023-03-12T05:21:21;5.25;;;3.60;;
67768;SDS011;54569;52.018;5.584;2023-03-12T05:23:51;5.15;;;3.65;;
67768;SDS011;54569;52.018;5.584;2023-03-12T05:26:24;5.60;;;3.47;;
67768;SDS011;54569;52.018;5.584;2023-03-12T05:29:02;5.60;;;3.67;;
67768;SDS011;54569;52.018;5.584;2023-03-12T05:31:29;8.52;;;3.42;;
67768;SDS011;54569;52.018;5.584;2023-03-12T05:34:00;5.55;;;3.95;;
67768;SDS011;54569;52.018;5.584;2023-03-12T05:36:27;6.15;;;3.92;;
67768;SDS011;54569;52.018;5.584;2023-03-12T05:38:53;7.32;;;3.95;;
67768;SDS011;54569;52.018;5.584;2023-03-12T05:41:20;3.78;;;3.22;;
67768;SDS011;54569;52.018;5.584;2023-03-12T05:43:50;5.40;;;3.47;;
67768;SDS011;54569;52.018;5.584;2023-03-12T05:46:17;6.03;;;3.38;;
67768;SDS011;54569;52.018;5.584;2023-03-12T05:48:44;5.15;;;3.28;;
67768;SDS011;54569;52.018;5.584;2023-03-12T05:51:09;5.20;;;4.03;;
67768;SDS011;54569;52.018;5.584;2023-03-12T05:53:36;9.15;;;4.43;;
67768;SDS011;54569;52.018;5.584;2023-03-12T05:56:03;9.93;;;3.72;;
67768;SDS011;54569;52.018;5.584;2023-03-12T05:58:30;4.68;;;3.50;;
67768;SDS011;54569;52.018;5.584;2023-03-12T06:00:57;6.35;;;3.95;;
67768;SDS011;54569;52.018;5.584;2023-03-12T06:03:23;3.67;;;3.17;;
67768;SDS011;54569;52.018;5.584;2023-03-12T06:05:49;4.88;;;3.30;;
67768;SDS011;54569;52.018;5.584;2023-03-12T06:08:20;8.23;;;3.47;;
67768;SDS011;54569;52.018;5.584;2023-03-12T06:10:49;6.35;;;3.85;;
67768;SDS011;54569;52.018;5.584;2023-03-12T06:13:16;6.60;;;3.50;;
67768;SDS011;54569;52.018;5.584;2023-03-12T06:15:42;5.97;;;3.50;;
67768;SDS011;54569;52.018;5.584;2023-03-12T06:18:08;4.97;;;3.63;;
67768;SDS011;54569;52.018;5.584;2023-03-12T06:20:34;5.85;;;3.30;;
67768;SDS011;54569;52.018;5.584;2023-03-12T06:23:00;3.72;;;3.33;;
67768;SDS011;54569;52.018;5.584;2023-03-12T06:25:25;5.95;;;3.58;;
67768;SDS011;54569;52.018;5.584;2023-03-12T06:27:51;7.28;;;3.47;;
67768;SDS011;54569;52.018;5.584;2023-03-12T06:30:17;7.05;;;3.72;;
67768;SDS011;54569;52.018;5.584;2023-03-12T06:32:43;7.28;;;3.78;;
67768;SDS011;54569;52.018;5.584;2023-03-12T06:35:08;6.15;;;3.70;;
67768;SDS011;54569;52.018;5.584;2023-03-12T06:37:34;6.75;;;3.53;;
67768;SDS011;54569;52.018;5.584;2023-03-12T06:40:00;5.55;;;3.83;;
67768;SDS011;54569;52.018;5.584;2023-03-12T06:42:25;4.97;;;3.63;;
67768;SDS011;54569;52.018;5.584;2023-03-12T06:44:51;7.22;;;3.47;;
67768;SDS011;54569;52.018;5.584;2023-03-12T06:47:17;9.07;;;3.88;;
67768;SDS011;54569;52.018;5.584;2023-03-12T06:49:43;7.50;;;3.65;;
67768;SDS011;54569;52.018;5.584;2023-03-12T06:52:09;7.93;;;3.83;;
67768;SDS011;54569;52.018;5.584;2023-03-12T06:54:35;6.95;;;3.83;;
67768;SDS011;54569;52.018;5.584;2023-03-12T06:57:00;4.47;;;3.63;;
67768;SDS011;54569;52.018;5.584;2023-03-12T06:59:26;4.53;;;3.65;;
67768;SDS011;54569;52.018;5.584;2023-03-12T07:01:52;6.50;;;3.78;;
67768;SDS011;54569;52.018;5.584;2023-03-12T07:04:18;5.82;;;3.70;;
67768;SDS011;54569;52.018;5.584;2023-03-12T07:06:44;5.18;;;3.45;;
67768;SDS011;54569;52.018;5.584;2023-03-12T07:09:14;5.03;;;3.90;;
67768;SDS011;54569;52.018;5.584;2023-03-12T07:11:42;8.60;;;4.40;;
67768;SDS011;54569;52.018;5.584;2023-03-12T07:14:08;9.65;;;4.00;;
67768;SDS011;54569;52.018;5.584;2023-03-12T07:16:34;5.47;;;4.03;;
67768;SDS011;54569;52.018;5.584;2023-03-12T07:19:00;8.23;;;4.13;;
67768;SDS011;54569;52.018;5.584;2023-03-12T07:21:25;7.35;;;4.38;;
67768;SDS011;54569;52.018;5.584;2023-03-12T07:23:51;9.27;;;4.43;;
67768;SDS011;54569;52.018;5.584;2023-03-12T07:26:17;7.05;;;3.92;;
67768;SDS011;54569;52.018;5.584;2023-03-12T07:28:44;6.75;;;4.38;;
67768;SDS011;54569;52.018;5.584;2023-03-12T07:31:09;12.75;;;4.50;;
67768;SDS011;54569;52.018;5.584;2023-03-12T07:33:36;7.03;;;4.30;;
67768;SDS011;54569;52.018;5.584;2023-03-12T07:36:02;10.48;;;4.55;;
67768;SDS011;54569;52.018;5.584;2023-03-12T07:38:28;11.35;;;4.32;;
67768;SDS011;54569;52.018;5.584;2023-03-12T07:40:55;6.07;;;4.70;;
67768;SDS011;54569;52.018;5.584;2023-03-12T07:43:23;8.32;;;4.88;;
67768;SDS011;54569;52.018;5.584;2023-03-12T07:45:52;10.48;;;4.38;;
67768;SDS011;54569;52.018;5.584;2023-03-12T07:48:17;9.23;;;5.05;;
67768;SDS011;54569;52.018;5.584;2023-03-12T07:50:44;9.80;;;5.70;;
67768;SDS011;54569;52.018;5.584;2023-03-12T07:53:10;9.82;;;5.85;;
67768;SDS011;54569;52.018;5.584;2023-03-12T07:55:36;9.40;;;5.93;;
67768;SDS011;54569;52.018;5.584;2023-03-12T07:58:02;8.73;;;4.88;;
67768;SDS011;54569;52.018;5.584;2023-03-12T08:00:28;8.70;;;5.32;;
67768;SDS011;54569;52.018;5.584;2023-03-12T08:02:54;8.80;;;4.90;;
67768;SDS011;54569;52.018;5.584;2023-03-12T08:05:20;10.20;;;4.95;;
67768;SDS011;54569;52.018;5.584;2023-03-12T08:07:49;7.38;;;5.38;;
67768;SDS011;54569;52.018;5.584;2023-03-12T08:10:16;6.63;;;5.18;;
67768;SDS011;54569;52.018;5.584;2023-03-12T08:12:42;10.48;;;5.85;;
67768;SDS011;54569;52.018;5.584;2023-03-12T08:15:07;7.82;;;5.50;;
67768;SDS011;54569;52.018;5.584;2023-03-12T08:17:34;6.13;;;5.53;;
67768;SDS011;54569;52.018;5.584;2023-03-12T08:20:00;8.75;;;5.35;;
67768;SDS011;54569;52.018;5.584;2023-03-12T08:22:26;8.23;;;5.50;;
67768;SDS011;54569;52.018;5.584;2023-03-12T08:24:51;10.52;;;5.47;;
67768;SDS011;54569;52.018;5.584;2023-03-12T08:27:17;7.15;;;5.75;;
67768;SDS011;54569;52.018;5.584;2023-03-12T08:29:43;9.57;;;5.97;;
67768;SDS011;54569;52.018;5.584;2023-03-12T08:32:08;6.85;;;5.28;;
67768;SDS011;54569;52.018;5.584;2023-03-12T08:34:38;7.57;;;6.00;;
67768;SDS011;54569;52.018;5.584;2023-03-12T08:37:03;7.38;;;5.28;;
67768;SDS011;54569;52.018;5.584;2023-03-12T08:39:30;8.30;;;5.80;;
67768;SDS011;54569;52.018;5.584;2023-03-12T08:41:56;7.80;;;5.57;;
67768;SDS011;54569;52.018;5.584;2023-03-12T08:44:22;6.70;;;6.00;;
67768;SDS011;54569;52.018;5.584;2023-03-12T08:46:48;11.65;;;6.82;;
67768;SDS011;54569;52.018;5.584;2023-03-12T08:49:15;8.45;;;5.90;;
67768;SDS011;54569;52.018;5.584;2023-03-12T08:51:41;8.98;;;6.07;;
67768;SDS011;54569;52.018;5.584;2023-03-12T08:54:07;9.25;;;6.63;;
67768;SDS011;54569;52.018;5.584;2023-03-12T08:56:33;11.68;;;6.55;;
67768;SDS011;54569;52.018;5.584;2023-03-12T08:59:02;9.98;;;6.45;;
67768;SDS011;54569;52.018;5.584;2023-03-12T09:01:28;12.30;;;6.80;;
67768;SDS011;54569;52.018;5.584;2023-03-12T09:03:54;8.55;;;6.40;;
67768;SDS011;54569;52.018;5.584;2023-03-12T09:06:19;14.00;;;6.90;;
67768;SDS011;54569;52.018;5.584;2023-03-12T09:08:45;9.52;;;6.55;;
67768;SDS011;54569;52.018;5.584;2023-03-12T09:11:13;12.10;;;7.47;;
67768;SDS011;54569;52.018;5.584;2023-03-12T09:13:39;10.27;;;7.07;;
67768;SDS011;54569;52.018;5.584;2023-03-12T09:16:06;8.48;;;6.40;;
67768;SDS011;54569;52.018;5.584;2023-03-12T09:18:32;9.75;;;7.03;;
67768;SDS011;54569;52.018;5.584;2023-03-12T09:20:59;10.43;;;7.80;;
67768;SDS011;54569;52.018;5.584;2023-03-12T09:23:25;9.65;;;7.55;;
67768;SDS011;54569;52.018;5.584;2023-03-12T09:25:52;8.43;;;7.13;;
67768;SDS011;54569;52.018;5.584;2023-03-12T09:28:18;11.52;;;7.70;;
67768;SDS011;54569;52.018;5.584;2023-03-12T09:30:44;13.48;;;8.68;;
67768;SDS011;54569;52.018;5.584;2023-03-12T09:33:10;13.23;;;9.07;;
67768;SDS011;54569;52.018;5.584;2023-03-12T09:35:37;14.88;;;8.43;;
67768;SDS011;54569;52.018;5.584;2023-03-12T09:38:03;14.90;;;8.85;;
67768;SDS011;54569;52.018;5.584;2023-03-12T09:40:30;12.55;;;8.75;;
67768;SDS011;54569;52.018;5.584;2023-03-12T09:42:58;14.32;;;9.10;;
67768;SDS011;54569;52.018;5.584;2023-03-12T09:45:28;12.93;;;9.27;;
67768;SDS011;54569;52.018;5.584;2023-03-12T09:47:59;15.68;;;9.18;;
67768;SDS011;54569;52.018;5.584;2023-03-12T09:50:28;14.40;;;10.50;;
67768;SDS011;54569;52.018;5.584;2023-03-12T09:55:36;14.68;;;10.63;;
67768;SDS011;54569;52.018;5.584;2023-03-12T09:58:07;13.70;;;10.35;;
67768;SDS011;54569;52.018;5.584;2023-03-12T10:00:37;18.73;;;11.90;;
67768;SDS011;54569;52.018;5.584;2023-03-12T10:03:06;17.23;;;11.13;;
67768;SDS011;54569;52.018;5.584;2023-03-12T10:08:28;22.25;;;12.02;;
67768;SDS011;54569;52.018;5.584;2023-03-12T10:18:53;20.85;;;12.45;;
67768;SDS011;54569;52.018;5.584;2023-03-12T10:27:19;23.60;;;14.27;;
67768;SDS011;54569;52.018;5.584;2023-03-12T10:29:49;21.38;;;12.77;;
67768;SDS011;54569;52.018;5.584;2023-03-12T10:32:18;20.83;;;12.82;;
67768;SDS011;54569;52.018;5.584;2023-03-12T10:34:50;18.15;;;13.00;;
67768;SDS011;54569;52.018;5.584;2023-03-12T10:37:36;17.98;;;12.18;;
67768;SDS011;54569;52.018;5.584;2023-03-12T10:40:09;20.85;;;12.27;;
67768;SDS011;54569;52.018;5.584;2023-03-12T10:47:58;18.55;;;11.95;;
67768;SDS011;54569;52.018;5.584;2023-03-12T10:50:27;21.05;;;12.70;;
67768;SDS011;54569;52.018;5.584;2023-03-12T10:56:08;18.20;;;13.05;;
67768;SDS011;54569;52.018;5.584;2023-03-12T10:58:37;19.70;;;14.13;;
67768;SDS011;54569;52.018;5.584;2023-03-12T11:03:39;22.40;;;12.93;;
67768;SDS011;54569;52.018;5.584;2023-03-12T11:06:06;20.42;;;14.20;;
67768;SDS011;54569;52.018;5.584;2023-03-12T11:08:36;17.45;;;13.82;;
67768;SDS011;54569;52.018;5.584;2023-03-12T11:11:02;17.13;;;12.57;;
67768;SDS011;54569;52.018;5.584;2023-03-12T11:13:33;19.60;;;13.07;;
67768;SDS011;54569;52.018;5.584;2023-03-12T11:16:00;18.95;;;11.95;;
67768;SDS011;54569;52.018;5.584;2023-03-12T11:19:14;23.48;;;12.70;;
67768;SDS011;54569;52.018;5.584;2023-03-12T11:24:12;17.90;;;10.38;;
67768;SDS011;54569;52.018;5.584;2023-03-12T11:26:51;17.88;;;9.93;;
67768;SDS011;54569;52.018;5.584;2023-03-12T11:29:38;24.70;;;11.02;;
67768;SDS011;54569;52.018;5.584;2023-03-12T11:34:36;19.58;;;9.60;;
67768;SDS011;54569;52.018;5.584;2023-03-12T11:39:38;20.92;;;9.02;;
67768;SDS011;54569;52.018;5.584;2023-03-12T11:48:09;19.75;;;8.27;;
67768;SDS011;54569;52.018;5.584;2023-03-12T11:50:55;17.73;;;7.13;;
67768;SDS011;54569;52.018;5.584;2023-03-12T11:56:35;18.73;;;7.53;;
67768;SDS011;54569;52.018;5.584;2023-03-12T12:10:29;18.58;;;6.18;;
67768;SDS011;54569;52.018;5.584;2023-03-12T12:13:10;21.02;;;6.40;;
67768;SDS011;54569;52.018;5.584;2023-03-12T12:15:49;21.70;;;6.70;;
67768;SDS011;54569;52.018;5.584;2023-03-12T12:27:00;14.57;;;5.55;;
67768;SDS011;54569;52.018;5.584;2023-03-12T12:32:21;18.70;;;5.65;;
67768;SDS011;54569;52.018;5.584;2023-03-12T12:42:48;22.52;;;5.68;;
67768;SDS011;54569;52.018;5.584;2023-03-12T12:45:17;18.40;;;5.55;;
67768;SDS011;54569;52.018;5.584;2023-03-12T12:47:46;24.73;;;6.47;;
67768;SDS011;54569;52.018;5.584;2023-03-12T12:50:34;18.75;;;5.38;;
67768;SDS011;54569;52.018;5.584;2023-03-12T12:58:39;19.50;;;5.65;;
67768;SDS011;54569;52.018;5.584;2023-03-12T13:01:28;23.77;;;5.97;;
67768;SDS011;54569;52.018;5.584;2023-03-12T13:03:57;20.05;;;6.25;;
67768;SDS011;54569;52.018;5.584;2023-03-12T13:12:12;20.08;;;5.15;;
67768;SDS011;54569;52.018;5.584;2023-03-12T13:14:52;30.52;;;6.03;;
67768;SDS011;54569;52.018;5.584;2023-03-12T13:17:21;24.40;;;6.25;;
67768;SDS011;54569;52.018;5.584;2023-03-12T13:19:53;24.05;;;5.82;;
67768;SDS011;54569;52.018;5.584;2023-03-12T13:22:34;22.98;;;5.28;;
67768;SDS011;54569;52.018;5.584;2023-03-12T13:25:15;28.48;;;4.97;;
67768;SDS011;54569;52.018;5.584;2023-03-12T13:27:46;29.73;;;5.43;;
67768;SDS011;54569;52.018;5.584;2023-03-12T13:43:02;22.52;;;4.90;;
67768;SDS011;54569;52.018;5.584;2023-03-12T13:48:22;31.60;;;5.40;;
67768;SDS011;54569;52.018;5.584;2023-03-12T13:50:51;23.63;;;5.28;;
67768;SDS011;54569;52.018;5.584;2023-03-12T13:53:23;28.23;;;5.50;;
67768;SDS011;54569;52.018;5.584;2023-03-12T13:55:59;25.75;;;4.40;;
67768;SDS011;54569;52.018;5.584;2023-03-12T13:58:34;23.25;;;4.80;;
67768;SDS011;54569;52.018;5.584;2023-03-12T14:01:12;29.65;;;5.40;;
67768;SDS011;54569;52.018;5.584;2023-03-12T14:03:44;25.45;;;4.65;;
67768;SDS011;54569;52.018;5.584;2023-03-12T14:06:16;26.10;;;5.20;;
67768;SDS011;54569;52.018;5.584;2023-03-12T14:09:20;20.85;;;4.47;;
67768;SDS011;54569;52.018;5.584;2023-03-12T14:14:53;18.25;;;3.67;;
67768;SDS011;54569;52.018;5.584;2023-03-12T14:17:40;24.33;;;5.65;;
67768;SDS011;54569;52.018;5.584;2023-03-12T14:20:18;20.85;;;3.90;;
67768;SDS011;54569;52.018;5.584;2023-03-12T14:22:48;18.77;;;3.88;;
67768;SDS011;54569;52.018;5.584;2023-03-12T14:25:21;21.60;;;4.43;;
67768;SDS011;54569;52.018;5.584;2023-03-12T14:28:01;18.85;;;3.70;;
67768;SDS011;54569;52.018;5.584;2023-03-12T14:30:46;23.67;;;3.83;;
67768;SDS011;54569;52.018;5.584;2023-03-12T14:33:26;16.17;;;3.28;;
67768;SDS011;54569;52.018;5.584;2023-03-12T14:36:17;25.88;;;4.05;;
67768;SDS011;54569;52.018;5.584;2023-03-12T14:38:46;14.93;;;3.47;;
67768;SDS011;54569;52.018;5.584;2023-03-12T14:43:51;19.05;;;3.53;;
67768;SDS011;54569;52.018;5.584;2023-03-12T14:46:19;17.90;;;3.58;;
67768;SDS011;54569;52.018;5.584;2023-03-12T14:48:47;21.90;;;3.72;;
67768;SDS011;54569;52.018;5.584;2023-03-12T14:51:22;17.60;;;4.03;;
67768;SDS011;54569;52.018;5.584;2023-03-12T14:53:52;22.23;;;3.75;;
67768;SDS011;54569;52.018;5.584;2023-03-12T14:56:26;19.42;;;3.38;;
67768;SDS011;54569;52.018;5.584;2023-03-12T14:58:54;24.45;;;3.80;;
67768;SDS011;54569;52.018;5.584;2023-03-12T15:01:22;20.10;;;3.28;;
67768;SDS011;54569;52.018;5.584;2023-03-12T15:03:51;20.23;;;4.07;;
67768;SDS011;54569;52.018;5.584;2023-03-12T15:06:42;20.52;;;3.95;;
67768;SDS011;54569;52.018;5.584;2023-03-12T15:09:13;19.95;;;3.85;;
67768;SDS011;54569;52.018;5.584;2023-03-12T15:11:43;18.70;;;3.83;;
67768;SDS011;54569;52.018;5.584;2023-03-12T15:14:14;22.55;;;4.30;;
67768;SDS011;54569;52.018;5.584;2023-03-12T15:16:41;20.10;;;4.47;;
67768;SDS011;54569;52.018;5.584;2023-03-12T15:19:11;21.15;;;4.78;;
67768;SDS011;54569;52.018;5.584;2023-03-12T15:21:38;17.15;;;4.15;;
67768;SDS011;54569;52.018;5.584;2023-03-12T15:24:04;25.05;;;4.60;;
67768;SDS011;54569;52.018;5.584;2023-03-12T15:26:32;19.08;;;3.67;;
67768;SDS011;54569;52.018;5.584;2023-03-12T15:29:15;21.00;;;4.25;;
67768;SDS011;54569;52.018;5.584;2023-03-12T15:31:51;19.33;;;4.43;;
67768;SDS011;54569;52.018;5.584;2023-03-12T15:34:27;20.33;;;3.65;;
67768;SDS011;54569;52.018;5.584;2023-03-12T15:37:00;17.60;;;4.50;;
67768;SDS011;54569;52.018;5.584;2023-03-12T15:41:59;22.30;;;4.50;;
67768;SDS011;54569;52.018;5.584;2023-03-12T15:47:17;19.05;;;3.78;;
67768;SDS011;54569;52.018;5.584;2023-03-12T15:49:49;18.20;;;4.15;;
67768;SDS011;54569;52.018;5.584;2023-03-12T15:57:31;20.88;;;3.78;;
67768;SDS011;54569;52.018;5.584;2023-03-12T16:02:38;19.05;;;4.43;;
67768;SDS011;54569;52.018;5.584;2023-03-12T16:05:11;14.95;;;2.97;;
67768;SDS011;54569;52.018;5.584;2023-03-12T16:07:37;20.23;;;3.63;;
67768;SDS011;54569;52.018;5.584;2023-03-12T16:10:03;22.17;;;3.80;;
67768;SDS011;54569;52.018;5.584;2023-03-12T16:12:30;16.85;;;3.95;;
67768;SDS011;54569;52.018;5.584;2023-03-12T16:14:55;19.60;;;4.50;;
67768;SDS011;54569;52.018;5.584;2023-03-12T16:17:21;21.33;;;4.15;;
67768;SDS011;54569;52.018;5.584;2023-03-12T16:19:51;22.38;;;3.60;;
67768;SDS011;54569;52.018;5.584;2023-03-12T16:22:16;16.10;;;3.75;;
67768;SDS011;54569;52.018;5.584;2023-03-12T16:24:44;28.27;;;4.97;;
67768;SDS011;54569;52.018;5.584;2023-03-12T16:27:11;23.58;;;4.68;;
67768;SDS011;54569;52.018;5.584;2023-03-12T16:29:39;16.33;;;3.88;;
67768;SDS011;54569;52.018;5.584;2023-03-12T16:32:13;24.90;;;4.68;;
67768;SDS011;54569;52.018;5.584;2023-03-12T16:34:40;19.33;;;4.30;;
67768;SDS011;54569;52.018;5.584;2023-03-12T16:37:10;25.63;;;4.00;;
67768;SDS011;54569;52.018;5.584;2023-03-12T16:39:37;20.10;;;4.30;;
67768;SDS011;54569;52.018;5.584;2023-03-12T16:42:02;22.80;;;4.32;;
67768;SDS011;54569;52.018;5.584;2023-03-12T16:44:38;23.25;;;4.30;;
67768;SDS011;54569;52.018;5.584;2023-03-12T16:47:08;22.50;;;4.30;;
67768;SDS011;54569;52.018;5.584;2023-03-12T16:49:38;22.90;;;3.85;;
67768;SDS011;54569;52.018;5.584;2023-03-12T16:52:17;29.85;;;5.18;;
67768;SDS011;54569;52.018;5.584;2023-03-12T16:54:44;24.00;;;4.47;;